Time;durP1;ratioP1;P1;durP2;ratioP2;P2;SDS_P1;SDS_P2;PMS_P1;PMS_P2;Temp;Humidity;BMP_temperature;BMP_pressure;BME280_temperature;BME280_humidity;BME280_pressure;Samples;Min_cycle;Max_cycle;Signal;HPM_P1;HPM_P2
2023/10/02 00:01:47;;;;;;;11.68;8.05;;;17.80;99.90;;;;;;5032379;28;20049;-81
2023/10/02 00:04:19;;;;;;;11.52;7.78;;;17.80;99.90;;;;;;5031929;28;20049;-83
2023/10/02 00:06:50;;;;;;;13.10;8.85;;;17.70;99.90;;;;;;5032556;28;20524;-85
2023/10/02 00:09:20;;;;;;;10.77;6.93;;;17.70;99.90;;;;;;5031937;28;20045;-82
2023/10/02 00:11:46;;;;;;;9.85;6.78;;;17.70;99.90;;;;;;5031151;28;20080;-84
2023/10/02 00:14:23;;;;;;;12.93;8.20;;;17.70;99.90;;;;;;5033049;28;20081;-83
2023/10/02 00:17:00;;;;;;;8.45;6.43;;;17.60;99.90;;;;;;5032783;28;20042;-82
2023/10/02 00:19:36;;;;;;;9.27;7.32;;;17.60;99.90;;;;;;5032528;28;20051;-85
2023/10/02 00:22:09;;;;;;;7.55;6.15;;;17.50;99.90;;;;;;5032670;28;20076;-85
2023/10/02 00:24:39;;;;;;;;;;;17.50;99.90;;;;;;5033275;28;20049;-81
2023/10/02 00:27:07;;;;;;;11.65;7.20;;;17.40;99.90;;;;;;5048201;28;19975;-82
2023/10/02 00:29:33;;;;;;;11.75;8.05;;;17.40;99.90;;;;;;5032955;28;20041;-83
2023/10/02 00:31:59;;;;;;;11.15;7.97;;;17.30;99.90;;;;;;5032859;28;20049;-84
2023/10/02 00:34:32;;;;;;;12.35;8.05;;;17.40;99.90;;;;;;5033033;28;20530;-83
2023/10/02 00:37:12;;;;;;;14.15;8.45;;;17.30;99.90;;;;;;5032091;28;20571;-83
2023/10/02 00:39:39;;;;;;;13.98;9.38;;;17.30;99.90;;;;;;5032696;28;20049;-79
2023/10/02 00:45:03;;;;;;;14.70;9.70;;;17.30;99.90;;;;;;5019988;28;20506;-82
2023/10/02 00:47:41;;;;;;;15.10;9.52;;;17.30;99.90;;;;;;5032337;28;20120;-83
2023/10/02 00:50:18;;;;;;;12.75;9.15;;;17.30;99.90;;;;;;5032522;28;20056;-83
2023/10/02 00:52:59;;;;;;;15.15;8.63;;;17.30;99.90;;;;;;5031544;28;20492;-84
2023/10/02 00:55:32;;;;;;;14.55;9.57;;;17.30;99.90;;;;;;5032812;28;20045;-81
2023/10/02 00:58:00;;;;;;;16.80;9.70;;;17.40;99.90;;;;;;5032436;28;20056;-83
2023/10/02 01:00:37;;;;;;;13.57;9.73;;;17.40;99.90;;;;;;5031781;28;20468;-87
2023/10/02 01:03:08;;;;;;;14.73;10.90;;;17.40;99.90;;;;;;5032826;28;20095;-86
2023/10/02 01:05:42;;;;;;;17.65;10.75;;;17.40;99.90;;;;;;5030842;28;20114;-80
2023/10/02 01:08:46;;;;;;;21.67;10.73;;;17.40;99.90;;;;;;5032125;28;20486;-79
2023/10/02 01:11:15;;;;;;;19.67;12.73;;;17.40;99.90;;;;;;5031378;28;20059;-83
2023/10/02 01:13:42;;;;;;;18.73;10.93;;;17.40;99.90;;;;;;5032003;28;20042;-86
2023/10/02 01:16:09;;;;;;;17.42;11.82;;;17.40;99.90;;;;;;5032018;28;20053;-86
2023/10/02 01:18:36;;;;;;;17.05;12.00;;;17.40;99.90;;;;;;5034517;28;20049;-84
2023/10/02 01:21:09;;;;;;;19.65;12.50;;;17.40;99.90;;;;;;5035914;28;20050;-82
2023/10/02 01:24:06;;;;;;;17.52;11.35;;;17.30;99.90;;;;;;5034799;28;20053;-81
2023/10/02 01:26:36;;;;;;;18.08;11.32;;;17.30;99.90;;;;;;5034358;28;20516;-84
2023/10/02 01:29:05;;;;;;;18.92;10.00;;;17.30;99.90;;;;;;5035762;28;20037;-85
2023/10/02 01:31:32;;;;;;;20.73;11.93;;;17.30;99.90;;;;;;5035356;28;20056;-84
2023/10/02 01:34:02;;;;;;;20.98;12.68;;;17.30;99.90;;;;;;5035310;28;20057;-82
2023/10/02 01:36:35;;;;;;;20.23;12.18;;;17.20;99.90;;;;;;5035348;28;20045;-83
2023/10/02 01:39:10;;;;;;;17.27;11.48;;;17.20;99.90;;;;;;5035610;28;20108;-82
2023/10/02 01:41:37;;;;;;;16.95;13.07;;;17.30;99.90;;;;;;5034875;28;20064;-84
2023/10/02 01:44:11;;;;;;;20.50;12.18;;;17.20;99.90;;;;;;5034934;28;20554;-85
2023/10/02 01:46:50;;;;;;;20.20;12.10;;;17.30;99.90;;;;;;5035741;28;20114;-83
2023/10/02 01:49:25;;;;;;;17.40;12.10;;;17.30;99.90;;;;;;5035254;28;20052;-83
2023/10/02 01:52:01;;;;;;;19.45;11.82;;;17.30;99.90;;;;;;5034927;28;20451;-85
2023/10/02 01:54:29;;;;;;;17.70;11.57;;;17.20;99.90;;;;;;5035199;28;20119;-84
2023/10/02 01:56:56;;;;;;;17.17;11.57;;;17.20;99.90;;;;;;5034923;28;20137;-84
2023/10/02 01:59:24;;;;;;;17.73;12.52;;;17.10;99.90;;;;;;5034818;28;20103;-82
2023/10/02 02:01:52;;;;;;;20.20;12.98;;;17.10;99.90;;;;;;5033574;28;20455;-86
2023/10/02 02:04:30;;;;;;;18.83;12.50;;;17.10;99.90;;;;;;5034679;28;20045;-84
2023/10/02 02:07:00;;;;;;;18.23;12.45;;;17.00;99.90;;;;;;5034860;28;20096;-83
2023/10/02 02:09:30;;;;;;;16.48;11.55;;;17.00;99.90;;;;;;5034765;28;20120;-84
2023/10/02 02:12:10;;;;;;;15.57;10.70;;;17.00;99.90;;;;;;5016905;28;20045;-83
2023/10/02 02:14:52;;;;;;;19.05;11.13;;;17.00;99.90;;;;;;5034694;28;20140;-83
2023/10/02 02:17:22;;;;;;;15.38;11.00;;;17.10;99.90;;;;;;5034514;28;20068;-84
2023/10/02 02:19:48;;;;;;;16.75;11.63;;;17.10;99.90;;;;;;5034473;28;20056;-83
2023/10/02 02:22:18;;;;;;;20.27;12.68;;;17.00;99.90;;;;;;5034302;28;20041;-85
2023/10/02 02:24:44;;;;;;;20.95;11.98;;;17.00;99.90;;;;;;5034362;28;20045;-83
2023/10/02 02:27:10;;;;;;;17.15;12.43;;;17.00;99.90;;;;;;5034422;28;20119;-84
2023/10/02 02:29:38;;;;;;;18.10;12.50;;;17.00;99.90;;;;;;5033260;28;20228;-85
2023/10/02 02:32:07;;;;;;;21.58;13.52;;;16.90;99.90;;;;;;5034044;28;20053;-84
2023/10/02 02:34:32;;;;;;;16.45;11.02;;;16.90;99.90;;;;;;5034541;28;20462;-85
2023/10/02 02:36:59;;;;;;;18.48;12.27;;;16.80;99.90;;;;;;5034253;28;20084;-84
2023/10/02 02:39:27;;;;;;;22.85;12.82;;;16.80;99.90;;;;;;5034243;28;20049;-83
2023/10/02 02:42:09;;;;;;;16.08;11.15;;;16.80;99.90;;;;;;5034270;28;20505;-84
2023/10/02 02:44:50;;;;;;;17.55;11.93;;;16.80;99.90;;;;;;5033671;28;20496;-85
2023/10/02 02:47:24;;;;;;;20.25;11.70;;;16.70;99.90;;;;;;5033893;28;20041;-84
2023/10/02 02:49:51;;;;;;;22.08;12.93;;;16.70;99.90;;;;;;5034099;28;20045;-84
2023/10/02 02:52:32;;;;;;;17.63;12.50;;;16.70;99.90;;;;;;5032580;28;20049;-83
2023/10/02 02:54:59;;;;;;;19.00;12.30;;;16.60;99.90;;;;;;5032681;28;20057;-83
2023/10/02 02:57:31;;;;;;;23.67;13.30;;;16.60;99.90;;;;;;5033342;28;20466;-80
2023/10/02 03:02:52;;;;;;;18.63;12.95;;;16.60;99.90;;;;;;5033583;28;20136;-83
2023/10/02 03:05:21;;;;;;;20.63;13.93;;;16.70;99.90;;;;;;5033651;28;20060;-87
2023/10/02 03:07:49;;;;;;;18.27;12.35;;;16.70;99.90;;;;;;5033527;28;20057;-87
2023/10/02 03:10:17;;;;;;;18.48;13.27;;;16.70;99.90;;;;;;5033960;28;20391;-85
2023/10/02 03:12:50;;;;;;;19.10;13.05;;;16.70;99.90;;;;;;5033564;28;20216;-86
2023/10/02 03:15:18;;;;;;;22.38;13.02;;;16.70;99.90;;;;;;5033933;28;20077;-84
2023/10/02 03:17:49;;;;;;;22.42;13.52;;;16.70;99.90;;;;;;5033543;28;20049;-82
2023/10/02 03:20:24;;;;;;;20.55;14.32;;;16.80;99.90;;;;;;5033030;28;20482;-84
2023/10/02 03:22:57;;;;;;;23.33;14.80;;;16.80;99.90;;;;;;5033336;28;20044;-84
2023/10/02 03:25:41;;;;;;;21.77;14.35;;;16.80;99.90;;;;;;5033384;28;20042;-85
2023/10/02 03:28:16;;;;;;;20.27;13.70;;;16.80;99.90;;;;;;5033311;28;20076;-87
2023/10/02 03:30:47;;;;;;;21.50;12.63;;;16.80;99.90;;;;;;5033258;28;20103;-85
2023/10/02 03:33:22;;;;;;;21.55;12.32;;;16.80;99.90;;;;;;5033427;28;20112;-85
2023/10/02 03:35:58;;;;;;;17.20;12.05;;;16.80;99.90;;;;;;5033777;28;20045;-79
2023/10/02 03:38:29;;;;;;;24.50;14.20;;;16.80;99.90;;;;;;5033230;28;20045;-80
2023/10/02 03:41:01;;;;;;;17.88;13.70;;;16.70;99.90;;;;;;5033263;28;20463;-83
2023/10/02 03:43:46;;;;;;;24.60;14.68;;;16.70;99.90;;;;;;5031931;28;20468;-81
2023/10/02 03:46:23;;;;;;;19.88;13.18;;;16.60;99.90;;;;;;5032900;28;20190;-81
2023/10/02 03:48:58;;;;;;;20.95;13.50;;;16.60;99.90;;;;;;5032930;28;20102;-83
2023/10/02 03:51:37;;;;;;;21.98;12.70;;;16.60;99.90;;;;;;5032822;28;20116;-87
2023/10/02 03:54:17;;;;;;;18.17;12.40;;;16.50;99.90;;;;;;5032853;28;20054;-86
2023/10/02 03:56:55;;;;;;;18.75;12.18;;;16.50;99.90;;;;;;5032007;28;20067;-84
2023/10/02 03:59:27;;;;;;;18.58;12.55;;;16.40;99.90;;;;;;5032940;28;20076;-85
2023/10/02 04:04:43;;;;;;;15.52;10.93;;;16.40;99.90;;;;;;5032561;28;20053;-85
2023/10/02 04:07:11;;;;;;;19.98;14.35;;;16.30;99.90;;;;;;5032283;28;20045;-80
2023/10/02 04:09:37;;;;;;;24.63;14.65;;;16.20;99.90;;;;;;5031359;28;20416;-88
2023/10/02 04:12:06;;;;;;;23.33;15.10;;;16.20;99.90;;;;;;5031828;28;20508;-85
2023/10/02 04:14:32;;;;;;;20.00;13.50;;;16.10;99.90;;;;;;5032527;28;20053;-84
2023/10/02 04:19:48;;;;;;;18.92;12.35;;;16.10;99.90;;;;;;5032205;28;20064;-81
2023/10/02 04:22:19;;;;;;;17.50;13.75;;;16.10;99.90;;;;;;5032314;28;20064;-80
2023/10/02 04:25:04;;;;;;;26.15;15.73;;;16.10;99.90;;;;;;5032395;28;20043;-83
2023/10/02 04:32:49;;;;;;;25.48;14.75;;;16.10;99.90;;;;;;5031933;28;20049;-82
2023/10/02 04:38:08;;;;;;;24.13;13.77;;;16.00;99.90;;;;;;5031152;28;20073;-83
2023/10/02 04:40:44;;;;;;;21.98;14.60;;;16.00;99.90;;;;;;5031473;28;20050;-80
2023/10/02 04:43:19;;;;;;;22.30;14.77;;;16.00;99.90;;;;;;5032433;28;20049;-84
2023/10/02 04:45:52;;;;;;;23.83;15.10;;;16.00;99.90;;;;;;5031238;28;20041;-82
2023/10/02 04:48:26;;;;;;;17.73;14.27;;;16.00;99.90;;;;;;5032580;28;20135;-82
2023/10/02 04:50:56;;;;;;;24.60;15.45;;;16.00;99.90;;;;;;5032084;28;20138;-80
2023/10/02 04:53:22;;;;;;;20.33;14.20;;;16.00;99.90;;;;;;5034142;28;20042;-84
2023/10/02 04:56:06;;;;;;;20.63;14.07;;;15.90;99.90;;;;;;5035734;28;20578;-80
2023/10/02 04:58:36;;;;;;;19.60;14.25;;;16.00;99.90;;;;;;5035155;28;20046;-81
2023/10/02 05:03:34;;;;;;;22.52;14.50;;;15.90;99.90;;;;;;5035781;28;20052;-81
2023/10/02 05:06:00;;;;;;;22.70;13.90;;;16.00;99.90;;;;;;5018368;28;20053;-83
2023/10/02 05:08:34;;;;;;;21.20;15.30;;;16.00;99.90;;;;;;5036022;28;20041;-85
2023/10/02 05:16:14;;;;;;;21.15;14.65;;;16.00;99.90;;;;;;5035923;28;20076;-82
2023/10/02 05:18:47;;;;;;;23.17;14.23;;;16.00;99.90;;;;;;5034452;28;20080;-83
2023/10/02 05:21:17;;;;;;;23.92;15.23;;;16.00;99.90;;;;;;5035104;28;20124;-84
2023/10/02 05:24:02;;;;;;;22.45;14.23;;;16.00;99.90;;;;;;5035889;28;20056;-81
2023/10/02 05:26:36;;;;;;;26.73;16.30;;;16.00;99.90;;;;;;5035807;28;20115;-83
2023/10/02 05:29:07;;;;;;;22.42;14.15;;;16.00;99.90;;;;;;5018024;28;20057;-84
2023/10/02 05:31:40;;;;;;;20.98;15.27;;;16.00;99.90;;;;;;5035330;28;20047;-82
2023/10/02 05:34:13;;;;;;;24.48;15.65;;;16.00;99.90;;;;;;5035472;28;20429;-84
2023/10/02 05:36:55;;;;;;;22.85;15.20;;;16.00;99.90;;;;;;5035592;28;20041;-83
2023/10/02 05:39:39;;;;;;;24.33;14.85;;;15.90;99.90;;;;;;5035539;28;20048;-84
2023/10/02 05:42:13;;;;;;;19.40;15.35;;;15.90;99.90;;;;;;5034162;28;20057;-81
2023/10/02 05:44:44;;;;;;;20.95;14.15;;;15.80;99.90;;;;;;5035200;28;20053;-83
2023/10/02 05:47:15;;;;;;;25.08;15.07;;;15.80;99.90;;;;;;5017626;28;20057;-83
2023/10/02 05:49:47;;;;;;;22.73;14.95;;;15.90;99.90;;;;;;5034108;28;20053;-85
2023/10/02 05:52:18;;;;;;;18.63;11.88;;;15.90;99.90;;;;;;5017597;28;20045;-86
2023/10/02 05:54:49;;;;;;;26.08;15.27;;;15.90;99.90;;;;;;5034124;28;20042;-80
2023/10/02 05:57:16;;;;;;;18.70;13.13;;;15.90;99.90;;;;;;5035221;28;20099;-80
2023/10/02 05:59:48;;;;;;;22.15;15.85;;;15.90;99.90;;;;;;5035454;28;20056;-85
2023/10/02 06:02:17;;;;;;;20.67;14.27;;;15.90;99.90;;;;;;5035276;28;20447;-83
2023/10/02 06:04:52;;;;;;;23.15;14.55;;;16.00;99.90;;;;;;5034997;28;20049;-82
2023/10/02 06:07:43;;;;;;;25.40;16.70;;;16.00;99.90;;;;;;5035270;28;20054;-82
2023/10/02 06:10:25;;;;;;;22.70;15.02;;;16.00;99.90;;;;;;5035034;28;20045;-81
2023/10/02 06:13:13;;;;;;;24.40;14.98;;;16.00;99.90;;;;;;5034908;28;20038;-85
2023/10/02 06:15:48;;;;;;;26.83;16.30;;;16.10;99.90;;;;;;5034995;28;20056;-85
2023/10/02 06:18:29;;;;;;;28.88;17.08;;;16.20;99.90;;;;;;5034749;28;20049;-83
2023/10/02 06:21:03;;;;;;;23.00;15.13;;;16.20;99.90;;;;;;5035128;28;20057;-83
2023/10/02 06:23:37;;;;;;;20.88;15.32;;;16.30;99.90;;;;;;5034280;28;20441;-83
2023/10/02 06:26:09;;;;;;;22.10;14.93;;;16.30;99.90;;;;;;5034574;28;20042;-84
2023/10/02 06:28:36;;;;;;;22.77;15.00;;;16.30;99.90;;;;;;5033450;28;20060;-82
2023/10/02 06:31:06;;;;;;;26.63;16.42;;;16.40;99.90;;;;;;5034373;28;20045;-83
2023/10/02 06:33:36;;;;;;;25.88;15.98;;;16.40;99.90;;;;;;5034373;28;20505;-86
2023/10/02 06:36:11;;;;;;;23.95;16.88;;;16.40;99.90;;;;;;5034308;28;20059;-86
2023/10/02 06:38:38;;;;;;;20.95;14.90;;;16.50;99.90;;;;;;5033210;28;20049;-83
2023/10/02 06:41:15;;;;;;;22.98;15.95;;;16.60;99.90;;;;;;5033983;28;20072;-85
2023/10/02 06:43:41;;;;;;;24.35;14.98;;;16.60;99.90;;;;;;5034218;28;20103;-81
2023/10/02 06:46:18;;;;;;;22.60;15.73;;;16.70;99.90;;;;;;5034013;28;20057;-87
2023/10/02 06:48:46;;;;;;;24.95;15.90;;;16.70;99.90;;;;;;5033868;28;20565;-86
2023/10/02 06:51:16;;;;;;;19.52;13.73;;;16.70;99.90;;;;;;5034349;28;20083;-77
2023/10/02 06:53:43;;;;;;;26.55;15.65;;;16.80;99.90;;;;;;5033419;28;20041;-85
2023/10/02 06:56:13;;;;;;;26.27;16.77;;;16.70;99.90;;;;;;5034510;28;20092;-83
2023/10/02 07:01:34;;;;;;;22.80;15.20;;;16.80;99.90;;;;;;5041104;28;20053;-82
2023/10/02 07:04:09;;;;;;;23.50;14.38;;;16.80;99.90;;;;;;5034142;28;20455;-85
2023/10/02 07:06:40;;;;;;;22.10;15.60;;;16.80;99.90;;;;;;5034522;28;20364;-82
2023/10/02 07:09:12;;;;;;;24.88;14.80;;;16.80;99.90;;;;;;5032445;28;20042;-85
2023/10/02 07:11:39;;;;;;;26.50;15.68;;;16.90;99.90;;;;;;5033447;28;20049;-85
2023/10/02 07:14:06;;;;;;;23.17;15.68;;;17.00;99.90;;;;;;5034545;28;20127;-83
2023/10/02 07:16:32;;;;;;;27.75;15.75;;;17.00;99.90;;;;;;5033675;28;20049;-83
2023/10/02 07:18:59;;;;;;;24.88;15.80;;;17.10;99.90;;;;;;5033454;28;20095;-84
2023/10/02 07:21:27;;;;;;;26.02;15.27;;;17.20;99.90;;;;;;5032520;28;20045;-82
2023/10/02 07:23:54;;;;;;;20.73;15.52;;;17.30;99.90;;;;;;5032298;28;20049;-82
2023/10/02 07:26:20;;;;;;;27.77;16.13;;;17.40;99.90;;;;;;5032975;28;20111;-82
2023/10/02 07:28:52;;;;;;;22.45;14.20;;;17.40;99.90;;;;;;5032311;28;20139;-81
2023/10/02 07:31:21;;;;;;;25.77;15.55;;;17.50;99.90;;;;;;5031846;28;20049;-83
2023/10/02 07:33:47;;;;;;;22.40;15.25;;;17.60;99.90;;;;;;5033082;28;20045;-83
2023/10/02 07:36:14;;;;;;;18.40;13.35;;;17.70;99.90;;;;;;5032291;28;20117;-82
2023/10/02 07:38:46;;;;;;;24.67;13.13;;;17.80;99.90;;;;;;5032261;28;20049;-82
2023/10/02 07:41:23;;;;;;;22.98;14.63;;;17.90;99.90;;;;;;5032759;28;20056;-82
2023/10/02 07:43:53;;;;;;;24.05;14.60;;;18.00;99.90;;;;;;5032699;28;20479;-79
2023/10/02 07:46:21;;;;;;;21.30;15.05;;;18.20;99.90;;;;;;5033112;28;20042;-82
2023/10/02 07:49:04;;;;;;;24.02;14.30;;;18.30;99.90;;;;;;5031952;28;20072;-81
2023/10/02 07:51:36;;;;;;;23.20;14.77;;;18.50;99.90;;;;;;5031870;28;20063;-84
2023/10/02 07:54:13;;;;;;;23.40;13.93;;;18.80;99.90;;;;;;5031806;28;20042;-83
2023/10/02 07:56:41;;;;;;;22.02;15.23;;;19.00;99.90;;;;;;5032178;28;20418;-80
2023/10/02 07:59:07;;;;;;;24.45;14.13;;;19.10;99.90;;;;;;5032030;28;20081;-81
2023/10/02 08:01:33;;;;;;;20.60;14.05;;;19.20;99.90;;;;;;5031503;28;20049;-83
2023/10/02 08:04:01;;;;;;;22.08;14.23;;;19.40;99.90;;;;;;5032668;28;20045;-81
2023/10/02 08:06:33;;;;;;;26.63;15.52;;;19.50;99.90;;;;;;5031877;28;20049;-82
2023/10/02 08:11:52;;;;;;;21.95;15.25;;;19.90;99.90;;;;;;5033010;28;20045;-83
2023/10/02 08:17:27;;;;;;;22.15;14.02;;;20.10;99.90;;;;;;5032688;28;20123;-79
2023/10/02 08:19:54;;;;;;;21.73;13.70;;;20.20;99.90;;;;;;5032204;28;20046;-79
2023/10/02 08:22:24;;;;;;;21.38;14.15;;;20.60;99.90;;;;;;5032411;28;20049;-79
2023/10/02 08:24:52;;;;;;;21.83;13.57;;;21.10;99.90;;;;;;5032406;28;20469;-83
2023/10/02 08:27:18;;;;;;;19.83;14.30;;;21.50;99.90;;;;;;5033298;28;20423;-85
2023/10/02 08:29:44;;;;;;;23.20;14.18;;;21.70;99.90;;;;;;5035439;28;20068;-82
2023/10/02 08:32:28;;;;;;;22.13;13.23;;;21.90;99.90;;;;;;5036051;28;20053;-80
2023/10/02 08:34:54;;;;;;;26.33;14.55;;;22.00;99.90;;;;;;5035815;28;20049;-84
2023/10/02 08:37:20;;;;;;;22.30;13.45;;;22.40;99.90;;;;;;5036434;28;20053;-84
2023/10/02 08:39:46;;;;;;;27.77;14.50;;;22.80;99.90;;;;;;5036433;28;20056;-82
2023/10/02 08:42:11;;;;;;;24.02;13.57;;;23.20;99.90;;;;;;5036196;28;20049;-85
2023/10/02 08:44:40;;;;;;;23.02;14.50;;;23.60;99.90;;;;;;5036282;28;20544;-82
2023/10/02 08:47:07;;;;;;;25.40;14.52;;;23.90;99.90;;;;;;5036208;28;20050;-84
2023/10/02 08:49:34;;;;;;;24.77;15.07;;;23.80;99.90;;;;;;5036610;28;20045;-83
2023/10/02 08:52:03;;;;;;;21.17;12.55;;;23.20;99.90;;;;;;5035807;28;20194;-78
2023/10/02 08:54:31;;;;;;;22.60;14.93;;;23.00;99.90;;;;;;5034856;28;20053;-83
2023/10/02 08:57:08;;;;;;;24.02;14.15;;;23.10;99.90;;;;;;5036428;28;20056;-86
2023/10/02 08:59:38;;;;;;;22.58;13.93;;;23.30;99.90;;;;;;5035664;28;20375;-82
2023/10/02 09:02:16;;;;;;;21.17;14.65;;;23.50;99.90;;;;;;5036242;28;20045;-80
2023/10/02 09:04:53;;;;;;;21.98;14.63;;;23.60;99.90;;;;;;5036109;28;20146;-85
2023/10/02 09:07:24;;;;;;;20.98;14.07;;;23.60;99.90;;;;;;5035767;28;20056;-80
2023/10/02 09:10:18;;;;;;;28.25;14.35;;;23.10;99.90;;;;;;5034690;28;20053;-83
2023/10/02 09:12:50;;;;;;;22.73;14.07;;;22.40;99.90;;;;;;5035953;28;20045;-84
2023/10/02 09:15:26;;;;;;;20.88;13.85;;;22.00;99.90;;;;;;5035485;28;20046;-80
2023/10/02 09:17:57;;;;;;;21.20;14.43;;;21.70;99.90;;;;;;5035226;28;20458;-85
2023/10/02 09:20:38;;;;;;;20.80;14.43;;;21.90;99.90;;;;;;5035602;28;20059;-84
2023/10/02 09:23:08;;;;;;;24.30;15.15;;;22.30;99.90;;;;;;5036293;28;20104;-83
2023/10/02 09:25:40;;;;;;;25.60;15.82;;;22.60;99.90;;;;;;5035645;28;20046;-82
2023/10/02 09:28:13;;;;;;;23.65;14.63;;;22.80;99.90;;;;;;5035343;28;20061;-83
2023/10/02 09:30:41;;;;;;;;;;;22.90;99.90;;;;;;5034950;28;20081;-84
2023/10/02 09:33:14;;;;;;;25.05;14.65;;;23.20;99.90;;;;;;5035304;28;20289;-84
2023/10/02 09:35:43;;;;;;;24.48;14.52;;;23.40;99.90;;;;;;5018156;28;20138;-81
2023/10/02 09:38:16;;;;;;;31.35;14.55;;;23.50;99.90;;;;;;5034738;28;20543;-83
2023/10/02 09:43:23;;;;;;;22.65;13.65;;;24.60;99.90;;;;;;5035301;28;20494;-80
2023/10/02 09:45:54;;;;;;;22.40;13.85;;;25.40;99.90;;;;;;5033924;28;20053;-82
2023/10/02 09:51:26;;;;;;;22.88;13.93;;;25.50;99.90;;;;;;5035416;28;20128;-80
2023/10/02 09:54:19;;;;;;;22.65;13.90;;;24.60;99.90;;;;;;5034912;28;20041;-81
2023/10/02 09:57:29;;;;;;;26.35;13.50;;;23.90;99.90;;;;;;5015463;28;20057;-84
2023/10/02 09:59:57;;;;;;;20.30;12.65;;;23.40;99.90;;;;;;5012755;28;20512;-81
2023/10/02 10:10:47;;;;;;;22.42;13.23;;;22.60;99.90;;;;;;5033766;28;20433;-82
2023/10/02 10:13:34;;;;;;;18.70;12.45;;;22.90;99.90;;;;;;5034287;28;20042;-83
2023/10/02 10:16:23;;;;;;;23.52;13.90;;;23.10;99.90;;;;;;5034659;28;20121;-84
2023/10/02 10:22:00;;;;;;;20.25;12.70;;;23.20;99.90;;;;;;5033622;28;20060;-82
2023/10/02 10:24:55;;;;;;;23.70;13.98;;;23.30;99.90;;;;;;5033771;28;20045;-82
2023/10/02 10:27:54;;;;;;;18.80;13.60;;;23.30;99.90;;;;;;5034502;28;20066;-84
2023/10/02 10:30:31;;;;;;;23.83;14.18;;;23.70;99.90;;;;;;5031020;28;20064;-77
2023/10/02 10:33:15;;;;;;;19.23;13.10;;;23.70;99.90;;;;;;5034361;28;20339;-86
2023/10/02 10:35:55;;;;;;;21.35;13.20;;;24.00;99.90;;;;;;5034081;28;20046;-82
2023/10/02 10:41:05;;;;;;;16.35;12.25;;;23.70;99.90;;;;;;5034146;28;20102;-80
2023/10/02 10:43:43;;;;;;;25.25;13.23;;;23.70;99.90;;;;;;5033439;28;20057;-84
2023/10/02 10:46:29;;;;;;;18.67;11.57;;;23.70;99.90;;;;;;5034120;28;20412;-84
2023/10/02 10:49:08;;;;;;;19.90;12.73;;;23.80;99.90;;;;;;5033917;28;20544;-84
2023/10/02 10:51:38;;;;;;;21.08;13.20;;;23.90;99.90;;;;;;5032169;28;20064;-80
2023/10/02 10:54:12;;;;;;;19.88;12.50;;;23.90;99.90;;;;;;5033550;28;20053;-83
2023/10/02 10:56:44;;;;;;;20.40;12.88;;;23.60;99.90;;;;;;5033919;28;20103;-84
2023/10/02 10:59:11;;;;;;;19.85;13.23;;;23.50;99.90;;;;;;5033645;28;20128;-80
2023/10/02 11:05:02;;;;;;;21.33;13.10;;;23.20;99.90;;;;;;4972929;28;20063;-84
2023/10/02 11:07:37;;;;;;;21.25;14.00;;;23.10;99.90;;;;;;4972994;28;20058;-84
2023/10/02 11:10:18;;;;;;;20.40;13.50;;;23.00;99.90;;;;;;5006619;28;20084;-84
2023/10/02 11:12:57;;;;;;;20.63;12.93;;;23.00;99.90;;;;;;5033414;28;20050;-82
2023/10/02 11:18:18;;;;;;;26.48;14.18;;;23.30;99.90;;;;;;5033189;28;20061;-83
2023/10/02 11:20:54;;;;;;;27.00;15.43;;;23.30;99.90;;;;;;5033325;28;20045;-85
2023/10/02 11:23:38;;;;;;;27.20;16.33;;;23.50;99.90;;;;;;5032830;28;20447;-80
2023/10/02 11:26:12;;;;;;;21.95;14.98;;;23.50;99.90;;;;;;5033368;28;20522;-79
2023/10/02 11:28:39;;;;;;;23.95;14.73;;;23.50;99.90;;;;;;5032522;28;20396;-82
2023/10/02 11:31:30;;;;;;;25.65;15.15;;;23.60;99.90;;;;;;5033405;28;20053;-83
2023/10/02 11:34:04;;;;;;;24.23;16.50;;;23.60;99.90;;;;;;5032808;28;20442;-83
2023/10/02 11:36:35;;;;;;;23.52;16.35;;;23.60;99.90;;;;;;5032908;28;20514;-80
2023/10/02 11:39:08;;;;;;;22.15;13.40;;;23.70;99.90;;;;;;5033239;28;20126;-82
2023/10/02 11:41:35;;;;;;;22.27;15.35;;;23.80;99.90;;;;;;5032819;28;20453;-83
2023/10/02 11:44:01;;;;;;;25.55;16.20;;;23.70;99.90;;;;;;5033236;28;20133;-83
2023/10/02 11:46:27;;;;;;;25.20;16.70;;;23.60;99.90;;;;;;5033077;28;20064;-84
2023/10/02 11:48:54;;;;;;;24.55;14.95;;;23.60;99.90;;;;;;5031451;28;20171;-82
2023/10/02 11:51:20;;;;;;;23.02;15.27;;;23.50;99.90;;;;;;5032688;28;20053;-81
2023/10/02 11:53:45;;;;;;;22.27;15.75;;;23.50;99.90;;;;;;5032948;28;20045;-77
2023/10/02 11:56:11;;;;;;;25.17;16.75;;;23.50;99.90;;;;;;5015260;28;20392;-78
2023/10/02 11:58:37;;;;;;;21.88;14.70;;;23.50;99.90;;;;;;5032845;28;20474;-78
2023/10/02 12:01:04;;;;;;;24.15;16.75;;;23.40;99.90;;;;;;5032730;28;20045;-77
2023/10/02 12:03:36;;;;;;;24.45;16.27;;;23.40;99.90;;;;;;5032742;28;20045;-79
2023/10/02 12:06:03;;;;;;;24.52;15.68;;;23.40;99.90;;;;;;5031870;28;20080;-79
2023/10/02 12:08:29;;;;;;;26.15;15.48;;;23.50;99.90;;;;;;5032388;28;20133;-80
2023/10/02 12:10:55;;;;;;;24.98;16.70;;;23.50;99.90;;;;;;5032513;28;20164;-81
2023/10/02 12:13:22;;;;;;;28.73;16.25;;;23.60;99.90;;;;;;5032725;28;20057;-85
2023/10/02 12:15:51;;;;;;;20.25;14.98;;;23.60;99.90;;;;;;5031328;28;20056;-83
2023/10/02 12:18:17;;;;;;;23.75;14.80;;;23.50;99.90;;;;;;5032778;28;20088;-83
2023/10/02 12:20:42;;;;;;;22.02;14.52;;;23.50;99.90;;;;;;5032063;28;20049;-79
2023/10/02 12:23:09;;;;;;;23.95;16.70;;;23.50;99.90;;;;;;5032361;28;20061;-84
2023/10/02 12:25:36;;;;;;;21.70;15.07;;;23.50;99.90;;;;;;5031544;28;20485;-83
2023/10/02 12:28:02;;;;;;;22.70;14.30;;;23.60;99.90;;;;;;5032852;28;20057;-83
2023/10/02 12:30:33;;;;;;;25.00;15.23;;;23.60;99.90;;;;;;5031242;28;20084;-81
2023/10/02 12:33:01;;;;;;;21.45;15.25;;;23.70;99.90;;;;;;5032327;28;20091;-82
2023/10/02 12:35:31;;;;;;;21.55;15.45;;;23.70;99.90;;;;;;5032622;28;20050;-83
2023/10/02 12:37:58;;;;;;;16.88;13.82;;;23.70;99.90;;;;;;5032681;28;20053;-85
2023/10/02 12:40:31;;;;;;;26.33;15.40;;;23.70;99.90;;;;;;5014856;28;20116;-82
2023/10/02 12:43:00;;;;;;;22.85;13.85;;;23.70;99.90;;;;;;5032069;28;20129;-86
2023/10/02 12:45:30;;;;;;;21.90;14.27;;;23.70;99.90;;;;;;5032426;28;20057;-82
2023/10/02 12:47:55;;;;;;;22.92;16.02;;;23.70;99.90;;;;;;5032199;28;20045;-81
2023/10/02 12:50:21;;;;;;;23.70;15.82;;;23.60;99.90;;;;;;5032489;28;20056;-84
2023/10/02 12:52:47;;;;;;;23.48;14.45;;;23.60;99.90;;;;;;5032200;28;20451;-82
2023/10/02 12:55:13;;;;;;;23.00;13.82;;;23.60;99.90;;;;;;5032267;28;20068;-81
2023/10/02 12:57:39;;;;;;;24.08;15.50;;;23.50;99.90;;;;;;5032569;28;20477;-81
2023/10/02 13:00:16;;;;;;;20.27;14.98;;;23.50;99.90;;;;;;5032430;28;20042;-78
2023/10/02 13:02:42;;;;;;;28.00;14.57;;;23.50;99.90;;;;;;5032244;28;20391;-84
2023/10/02 13:05:09;;;;;;;20.55;13.85;;;23.30;99.90;;;;;;5032145;28;20049;-80
2023/10/02 13:07:35;;;;;;;21.85;13.88;;;23.30;99.90;;;;;;5032007;28;20057;-83
2023/10/02 13:10:02;;;;;;;21.35;14.90;;;23.30;99.90;;;;;;5032256;28;20052;-82
2023/10/02 13:12:28;;;;;;;22.10;14.25;;;23.20;99.90;;;;;;5030686;28;20060;-83
2023/10/02 13:14:54;;;;;;;25.15;15.63;;;23.20;99.90;;;;;;5017562;28;20124;-81
2023/10/02 13:17:20;;;;;;;22.10;14.98;;;23.20;99.90;;;;;;5034369;28;20050;-82
2023/10/02 13:19:46;;;;;;;27.10;14.80;;;23.30;99.90;;;;;;5035825;28;20052;-80
2023/10/02 13:22:11;;;;;;;20.40;14.38;;;23.30;99.90;;;;;;5035528;28;20042;-81
2023/10/02 13:24:37;;;;;;;22.17;14.48;;;23.30;99.90;;;;;;5035424;28;20052;-83
2023/10/02 13:27:03;;;;;;;23.08;13.98;;;23.20;99.90;;;;;;5035729;28;20056;-81
2023/10/02 13:29:28;;;;;;;22.63;14.88;;;23.20;99.90;;;;;;5035456;28;20056;-81
2023/10/02 13:31:54;;;;;;;24.27;15.82;;;23.20;99.90;;;;;;5035407;28;20048;-83
2023/10/02 13:34:21;;;;;;;24.88;15.23;;;23.20;99.90;;;;;;5034957;28;20052;-81
2023/10/02 13:36:46;;;;;;;23.58;15.07;;;23.20;99.90;;;;;;5035434;28;20100;-83
2023/10/02 13:39:13;;;;;;;24.35;14.63;;;23.30;99.90;;;;;;5035536;28;20049;-82
2023/10/02 13:41:39;;;;;;;20.55;14.73;;;23.30;99.90;;;;;;5034916;28;20072;-83
2023/10/02 13:44:07;;;;;;;25.80;16.33;;;23.20;99.90;;;;;;5035133;28;20042;-81
2023/10/02 13:46:38;;;;;;;19.30;14.48;;;23.20;99.90;;;;;;5035212;28;20049;-84
2023/10/02 13:49:06;;;;;;;20.17;14.57;;;23.20;99.90;;;;;;5035163;28;20051;-79
2023/10/02 13:51:31;;;;;;;25.23;14.27;;;23.20;99.90;;;;;;5035065;28;20084;-81
2023/10/02 13:53:57;;;;;;;22.45;13.57;;;23.30;99.90;;;;;;5035369;28;20068;-81